Terminal Aerodrome Forecast
Issued by NWS Billings, MT

Home | Current Version | Previous Version | Graphics & Text | Print | Product List | Glossary On
Versions: 1 2 3 4 5 6 7 8 9 10 11 12 13 14 15 16 17
000
FTUS45 KBYZ 261637 AAA
TAFMLS
TAF AMD
KMLS 261637Z 2617/2712 28012G17KT P6SM VCTS SCT029CB BKN035 BKN060
     FM270300 VRB06KT P6SM VCSH SCT050 BKN100=

USA.gov is the U.S. government's official web portal to all federal, state and local government web resources and services.